Terminal Aerodrome Forecast
Issued by NWS

Home | Current Version | Previous Version | Text Only | Print | Product List | Glossary On
Versions: 1 2 3 4 5 6 7 8 9 10 11 12 13 14 15 16 17 18 19 20 21 22 23 24 25 26
107
FTUS44 KSJT 171157
TAFSOA
TAF
KSOA 171157Z 1712/1812 03013KT P6SM SCT020 OVC030
     FM171600 05011KT 6SM -SHRA BR OVC020
     FM171900 04010KT 4SM -SHRA BR OVC012
     FM172300 04010KT 4SM BR VCSH OVC007
     FM180200 03006KT 3SM -DZ BR OVC003=

USA.gov is the U.S. government's official web portal to all federal, state and local government web resources and services.